createdAt,value
2023-02-26T00:04:50.053Z,31.4
2023-02-26T00:10:45.272Z,31.4
2023-02-26T00:16:23.816Z,31.4
2023-02-26T00:22:17.344Z,31.4
2023-02-26T00:28:10.140Z,31.4
2023-02-26T00:34:04.105Z,31.3
2023-02-26T00:39:57.224Z,31.3
2023-02-26T00:45:50.098Z,31.3
2023-02-26T00:51:43.412Z,31.3
2023-02-26T00:57:35.294Z,31.3
2023-02-26T01:03:28.026Z,31.2
2023-02-26T01:09:20.703Z,31.1
2023-02-26T01:15:12.686Z,31.1
2023-02-26T01:21:07.628Z,31.1
2023-02-26T01:27:00.670Z,31.1
2023-02-26T01:32:54.413Z,31.1
2023-02-26T01:38:47.759Z,31
2023-02-26T01:44:40.743Z,31
2023-02-26T01:50:34.062Z,31
2023-02-26T01:56:28.265Z,30.9
2023-02-26T02:02:20.650Z,30.9
2023-02-26T02:08:13.318Z,31
2023-02-26T02:14:06.134Z,31.1
2023-02-26T02:19:43.856Z,31.1
2023-02-26T02:25:20.762Z,31.2
2023-02-26T02:31:15.282Z,31.5
2023-02-26T02:37:09.110Z,31.9
2023-02-26T02:43:02.670Z,32.4
2023-02-26T02:48:57.848Z,33.1
2023-02-26T02:54:50.427Z,33.8
2023-02-26T03:00:42.925Z,34.4
2023-02-26T03:06:37.464Z,35.2
2023-02-26T03:12:30.621Z,35.9
2023-02-26T03:18:24.214Z,36.6
2023-02-26T03:24:17.899Z,37.4
2023-02-26T03:30:10.482Z,38.1
2023-02-26T03:36:03.592Z,38.6
2023-02-26T03:41:56.133Z,38.9
2023-02-26T03:47:33.280Z,39
2023-02-26T03:53:26.715Z,39.1
2023-02-26T03:59:04.126Z,39.1
2023-02-26T04:04:42.616Z,39.1
2023-02-26T04:10:22.146Z,39.1
2023-02-26T04:16:15.412Z,39.1
2023-02-26T04:21:52.940Z,39.1
2023-02-26T04:27:45.931Z,39
2023-02-26T04:33:39.454Z,39
2023-02-26T04:39:31.901Z,39
2023-02-26T04:45:09.053Z,38.9
2023-02-26T04:51:03.536Z,39.2
2023-02-26T05:07:40.981Z,39.3
2023-02-26T05:13:34.166Z,39.3
2023-02-26T05:19:27.685Z,39.3
2023-02-26T05:25:23.134Z,39.3
2023-02-26T05:31:16.349Z,39.1
2023-02-26T05:37:09.541Z,38.9
2023-02-26T05:43:02.809Z,38.9
2023-02-26T05:48:56.072Z,38.8
2023-02-26T05:54:33.569Z,38.8
2023-02-26T06:00:26.025Z,38.8
2023-02-26T06:06:18.779Z,38.6
2023-02-26T06:12:10.380Z,38.6
2023-02-26T06:18:03.676Z,38.5
2023-02-26T06:23:56.238Z,38.5
2023-02-26T06:29:49.044Z,38.4
2023-02-26T06:35:27.335Z,38.4
2023-02-26T06:41:06.060Z,38.4
2023-02-26T06:46:58.613Z,38.4
2023-02-26T06:52:50.938Z,38.5
2023-02-26T06:58:43.395Z,38.6
2023-02-26T07:04:37.347Z,38.6
2023-02-26T07:10:51.358Z,38.6
2023-02-26T07:16:44.565Z,38.6
2023-02-26T07:22:38.712Z,38.5
2023-02-26T07:28:33.384Z,38.5
2023-02-26T07:34:27.466Z,38.4
2023-02-26T07:40:19.187Z,38.4
2023-02-26T07:46:12.016Z,38.4
2023-02-26T07:51:49.486Z,38.5
2023-02-26T07:57:41.568Z,38.4
2023-02-26T08:03:34.771Z,38.4
2023-02-26T08:09:27.500Z,38.3
2023-02-26T08:15:20.305Z,38.3
2023-02-26T08:21:13.715Z,38.3
2023-02-26T08:26:36.651Z,38.2
2023-02-26T08:32:30.237Z,37.9
2023-02-26T08:38:23.550Z,38
2023-02-26T08:43:47.735Z,37.9
2023-02-26T08:49:51.948Z,43.3
2023-02-26T08:55:44.527Z,41.6
2023-02-26T09:01:36.524Z,40.9
2023-02-26T09:07:33.129Z,40.5
2023-02-26T09:13:26.565Z,40.1
2023-02-26T09:19:03.790Z,46.3
2023-02-26T09:24:57.531Z,43.9
2023-02-26T09:30:50.283Z,51.8
2023-02-26T09:36:28.434Z,54.3
2023-02-26T09:42:22.720Z,56.8
2023-02-26T09:48:15.484Z,57.9
2023-02-26T09:53:52.059Z,58.1
2023-02-26T09:59:44.022Z,58.1
2023-02-26T10:05:37.105Z,59
2023-02-26T10:11:30.006Z,60.1
2023-02-26T10:17:05.809Z,60.8
2023-02-26T10:22:44.284Z,61.3
2023-02-26T10:28:36.887Z,61.8
2023-02-26T10:34:16.394Z,61.6
2023-02-26T10:39:55.898Z,62
2023-02-26T10:45:32.982Z,62.3
2023-02-26T10:50:54.774Z,61.8
2023-02-26T10:56:32.705Z,59.9
2023-02-26T11:02:10.132Z,58.2
2023-02-26T11:07:53.168Z,56.4
2023-02-26T11:13:46.231Z,55.6
2023-02-26T11:19:40.650Z,54.8
2023-02-26T11:25:34.402Z,53.7
2023-02-26T11:31:30.474Z,53.1
2023-02-26T11:37:24.967Z,52.2
2023-02-26T11:43:05.461Z,49.1
2023-02-26T11:48:42.933Z,46.4
2023-02-26T11:54:04.478Z,44.8
2023-02-26T11:59:43.737Z,43.6
2023-02-26T12:05:37.102Z,42.8
2023-02-26T12:11:30.264Z,42
2023-02-26T12:17:23.116Z,41.5
2023-02-26T12:23:03.611Z,41.1
2023-02-26T12:28:41.048Z,40.8
2023-02-26T12:34:34.132Z,40.5
2023-02-26T12:40:44.299Z,40.3
2023-02-26T12:46:21.623Z,40.1
2023-02-26T12:52:15.350Z,39.9
2023-02-26T12:58:08.438Z,39.8
2023-02-26T13:04:12.283Z,39.7
2023-02-26T13:10:03.908Z,39.8
2023-02-26T13:15:57.329Z,39.8
2023-02-26T13:21:49.973Z,39.7
2023-02-26T13:27:41.722Z,39.6
2023-02-26T13:33:39.766Z,39.4
2023-02-26T13:39:32.372Z,39
2023-02-26T13:45:25.816Z,38.6
2023-02-26T13:50:32.050Z,38.4
2023-02-26T13:55:53.632Z,38.2
2023-02-26T14:01:32.522Z,38
2023-02-26T14:07:09.508Z,38.1
2023-02-26T14:12:48.716Z,38.2
2023-02-26T14:18:25.972Z,38.2
2023-02-26T14:24:18.657Z,27.8
2023-02-26T14:30:11.633Z,30.6
2023-02-26T14:36:05.811Z,33.9
2023-02-26T14:42:02.531Z,35.7
2023-02-26T14:47:55.180Z,36.7
2023-02-26T14:53:47.766Z,37.3
2023-02-26T14:59:25.893Z,37.6
2023-02-26T15:05:33.588Z,37.8
2023-02-26T15:11:26.254Z,37.9
2023-02-26T15:17:21.525Z,37.9
2023-02-26T15:23:14.810Z,37.9
2023-02-26T15:29:08.456Z,37.8
2023-02-26T15:35:02.887Z,37.8
2023-02-26T15:40:56.516Z,37.6
2023-02-26T15:46:57.841Z,37.5
2023-02-26T15:52:50.916Z,37.4
2023-02-26T15:58:43.953Z,37.3
2023-02-26T16:04:21.731Z,37.3
2023-02-26T16:10:14.280Z,37.2
2023-02-26T16:16:07.045Z,37
2023-02-26T16:22:00.715Z,36.9
2023-02-26T16:27:54.624Z,36.9
2023-02-26T16:33:48.465Z,36.8
2023-02-26T16:39:26.844Z,36.8
2023-02-26T16:45:04.881Z,36.7
2023-02-26T16:50:43.797Z,36.6
2023-02-26T16:56:06.688Z,36.6
2023-02-26T17:01:31.723Z,36.5
2023-02-26T17:07:09.731Z,36.4
2023-02-26T17:13:06.621Z,36.2
2023-02-26T17:19:01.508Z,36.1
2023-02-26T17:24:54.656Z,36
2023-02-26T17:30:48.081Z,35.9
2023-02-26T17:36:42.524Z,35.8
2023-02-26T17:42:35.403Z,35.7
2023-02-26T17:48:28.580Z,35.7
2023-02-26T17:54:22.353Z,35.6
2023-02-26T18:00:15.792Z,35.6
2023-02-26T18:06:10.670Z,35.4
2023-02-26T18:12:04.431Z,35.3
2023-02-26T18:17:57.637Z,35.2
2023-02-26T18:23:50.738Z,35.2
2023-02-26T18:29:44.255Z,35.1
2023-02-26T18:35:38.148Z,35.1
2023-02-26T18:41:31.128Z,35
2023-02-26T18:47:24.553Z,34.8
2023-02-26T18:53:17.689Z,34.6
2023-02-26T18:59:13.644Z,34.6
2023-02-26T19:05:08.236Z,34.7
2023-02-26T19:11:01.102Z,34.8
2023-02-26T19:16:54.845Z,34.8
2023-02-26T19:22:48.673Z,34.8
2023-02-26T19:28:45.186Z,34.8
2023-02-26T19:34:42.876Z,34.8
2023-02-26T19:40:37.171Z,34.8
2023-02-26T19:46:30.558Z,34.8
2023-02-26T19:52:23.692Z,34.7
2023-02-26T19:58:16.240Z,34.7
2023-02-26T20:04:10.336Z,34.7
2023-02-26T20:10:05.404Z,34.6
2023-02-26T20:15:58.950Z,34.6
2023-02-26T20:21:52.912Z,34.8
2023-02-26T20:27:30.076Z,34.8
2023-02-26T20:33:27.434Z,34.9
2023-02-26T20:39:22.426Z,35.1
2023-02-26T20:45:15.885Z,35.7
2023-02-26T20:51:09.613Z,36.4
2023-02-26T20:57:03.283Z,37.1
2023-02-26T21:02:41.641Z,37.8
2023-02-26T21:08:19.703Z,38.6
2023-02-26T21:14:12.104Z,39.1
2023-02-26T21:20:05.652Z,39.4
2023-02-26T21:25:59.062Z,39.4
2023-02-26T21:31:53.833Z,39.4
2023-02-26T21:38:12.871Z,39.6
2023-02-26T21:44:06.785Z,39.8
2023-02-26T21:50:00.447Z,39.8
2023-02-26T21:55:54.111Z,39.8
2023-02-26T22:01:47.128Z,39.8
2023-02-26T22:07:39.534Z,39.8
2023-02-26T22:13:32.868Z,39.8
2023-02-26T22:19:25.361Z,39.8
2023-02-26T22:25:17.193Z,39.8
2023-02-26T22:31:09.406Z,39.8
2023-02-26T22:37:02.904Z,39.8
2023-02-26T22:42:55.648Z,39.8
2023-02-26T22:48:48.742Z,39.8
2023-02-26T22:54:41.188Z,39.8
2023-02-26T23:00:33.012Z,39.8
2023-02-26T23:06:27.050Z,39.7
2023-02-26T23:12:19.945Z,39.7
2023-02-26T23:18:12.731Z,39.6
2023-02-26T23:24:04.467Z,39.6
2023-02-26T23:29:56.909Z,39.6
2023-02-26T23:35:50.025Z,39.6
2023-02-26T23:41:42.576Z,39.6
2023-02-26T23:47:34.993Z,39.5
2023-02-26T23:53:26.936Z,39.5
2023-02-26T23:59:19.239Z,39.4
